sensor_id;sensor_type;location;lat;lon;timestamp;pressure;altitude;pressure_sealevel;temperature;humidity
43153;BME280;28756;49.064;9.290;2024-03-02T00:00:11;98086.31;;;4.76;100.00
43153;BME280;28756;49.064;9.290;2024-03-02T00:02:45;98092.44;;;4.73;100.00
43153;BME280;28756;49.064;9.290;2024-03-02T00:05:19;98091.19;;;4.63;100.00
43153;BME280;28756;49.064;9.290;2024-03-02T00:07:57;98098.03;;;4.64;100.00
43153;BME280;28756;49.064;9.290;2024-03-02T00:10:26;98091.00;;;4.67;100.00
43153;BME280;28756;49.064;9.290;2024-03-02T00:12:56;98093.16;;;4.57;100.00
43153;BME280;28756;49.064;9.290;2024-03-02T00:15:47;98095.50;;;4.62;100.00
43153;BME280;28756;49.064;9.290;2024-03-02T00:18:16;98088.75;;;4.59;100.00
43153;BME280;28756;49.064;9.290;2024-03-02T00:20:44;98092.44;;;4.54;100.00
43153;BME280;28756;49.064;9.290;2024-03-02T00:23:12;98086.56;;;4.52;100.00
43153;BME280;28756;49.064;9.290;2024-03-02T00:25:45;98079.72;;;4.51;100.00
43153;BME280;28756;49.064;9.290;2024-03-02T00:28:23;98081.25;;;4.55;100.00
43153;BME280;28756;49.064;9.290;2024-03-02T00:31:13;98079.44;;;4.57;100.00
43153;BME280;28756;49.064;9.290;2024-03-02T00:33:45;98080.00;;;4.64;100.00
43153;BME280;28756;49.064;9.290;2024-03-02T00:36:16;98082.41;;;4.67;100.00
43153;BME280;28756;49.064;9.290;2024-03-02T00:38:53;98088.25;;;4.70;100.00
43153;BME280;28756;49.064;9.290;2024-03-02T00:41:31;98094.19;;;4.72;100.00
43153;BME280;28756;49.064;9.290;2024-03-02T00:44:04;98080.19;;;4.78;100.00
43153;BME280;28756;49.064;9.290;2024-03-02T00:46:35;98093.88;;;4.79;100.00
43153;BME280;28756;49.064;9.290;2024-03-02T00:49:04;98085.41;;;4.77;100.00
43153;BME280;28756;49.064;9.290;2024-03-02T00:51:33;98077.69;;;4.77;100.00
43153;BME280;28756;49.064;9.290;2024-03-02T00:54:04;98080.25;;;4.77;100.00
43153;BME280;28756;49.064;9.290;2024-03-02T00:56:31;98072.53;;;4.77;100.00
43153;BME280;28756;49.064;9.290;2024-03-02T00:58:58;98075.03;;;4.78;100.00
43153;BME280;28756;49.064;9.290;2024-03-02T01:01:24;98063.88;;;4.78;100.00
43153;BME280;28756;49.064;9.290;2024-03-02T01:03:50;98065.72;;;4.76;100.00
43153;BME280;28756;49.064;9.290;2024-03-02T01:06:16;98059.09;;;4.70;100.00
43153;BME280;28756;49.064;9.290;2024-03-02T01:08:42;98049.84;;;4.66;100.00
43153;BME280;28756;49.064;9.290;2024-03-02T01:11:18;98050.91;;;4.62;100.00
43153;BME280;28756;49.064;9.290;2024-03-02T01:13:45;98055.16;;;4.63;100.00
43153;BME280;28756;49.064;9.290;2024-03-02T01:16:11;98055.44;;;4.56;100.00
43153;BME280;28756;49.064;9.290;2024-03-02T01:18:37;98060.63;;;4.55;100.00
43153;BME280;28756;49.064;9.290;2024-03-02T01:21:03;98056.47;;;4.52;100.00
43153;BME280;28756;49.064;9.290;2024-03-02T01:23:29;98064.34;;;4.49;100.00
43153;BME280;28756;49.064;9.290;2024-03-02T01:25:55;98056.69;;;4.48;100.00
43153;BME280;28756;49.064;9.290;2024-03-02T01:28:21;98052.91;;;4.55;100.00
43153;BME280;28756;49.064;9.290;2024-03-02T01:30:47;98051.88;;;4.59;100.00
43153;BME280;28756;49.064;9.290;2024-03-02T01:33:13;98049.38;;;4.57;100.00
43153;BME280;28756;49.064;9.290;2024-03-02T01:35:39;98045.88;;;4.58;100.00
43153;BME280;28756;49.064;9.290;2024-03-02T01:38:05;98043.25;;;4.60;100.00
43153;BME280;28756;49.064;9.290;2024-03-02T01:40:34;98044.75;;;4.64;100.00
43153;BME280;28756;49.064;9.290;2024-03-02T01:43:00;98043.72;;;4.68;100.00
43153;BME280;28756;49.064;9.290;2024-03-02T01:45:28;98044.63;;;4.67;100.00
43153;BME280;28756;49.064;9.290;2024-03-02T01:47:54;98039.41;;;4.69;100.00
43153;BME280;28756;49.064;9.290;2024-03-02T01:50:32;98047.34;;;4.64;100.00
43153;BME280;28756;49.064;9.290;2024-03-02T01:52:58;98043.25;;;4.60;100.00
43153;BME280;28756;49.064;9.290;2024-03-02T01:55:25;98033.16;;;4.55;100.00
43153;BME280;28756;49.064;9.290;2024-03-02T01:57:52;98041.88;;;4.53;100.00
43153;BME280;28756;49.064;9.290;2024-03-02T02:00:19;98037.69;;;4.50;100.00
43153;BME280;28756;49.064;9.290;2024-03-02T02:02:49;98029.47;;;4.42;100.00
43153;BME280;28756;49.064;9.290;2024-03-02T02:05:15;98030.63;;;4.36;100.00
43153;BME280;28756;49.064;9.290;2024-03-02T02:07:42;98031.44;;;4.37;100.00
43153;BME280;28756;49.064;9.290;2024-03-02T02:10:09;98027.41;;;4.31;100.00
43153;BME280;28756;49.064;9.290;2024-03-02T02:12:36;98021.50;;;4.29;100.00
43153;BME280;28756;49.064;9.290;2024-03-02T02:15:04;98013.59;;;4.34;100.00
43153;BME280;28756;49.064;9.290;2024-03-02T02:17:31;98014.19;;;4.39;100.00
43153;BME280;28756;49.064;9.290;2024-03-02T02:19:56;98013.78;;;4.48;100.00
43153;BME280;28756;49.064;9.290;2024-03-02T02:22:22;98009.31;;;4.52;100.00
43153;BME280;28756;49.064;9.290;2024-03-02T02:24:48;98011.66;;;4.56;100.00
43153;BME280;28756;49.064;9.290;2024-03-02T02:27:14;98004.75;;;4.57;100.00
43153;BME280;28756;49.064;9.290;2024-03-02T02:29:41;97998.72;;;4.58;100.00
43153;BME280;28756;49.064;9.290;2024-03-02T02:32:07;98000.31;;;4.61;100.00
43153;BME280;28756;49.064;9.290;2024-03-02T02:34:33;98002.06;;;4.60;100.00
43153;BME280;28756;49.064;9.290;2024-03-02T02:36:59;98003.03;;;4.57;100.00
43153;BME280;28756;49.064;9.290;2024-03-02T02:39:25;97998.78;;;4.56;100.00
43153;BME280;28756;49.064;9.290;2024-03-02T02:41:51;98004.06;;;4.53;100.00
43153;BME280;28756;49.064;9.290;2024-03-02T02:44:16;97998.53;;;4.43;100.00
43153;BME280;28756;49.064;9.290;2024-03-02T02:46:42;97989.34;;;4.38;100.00
43153;BME280;28756;49.064;9.290;2024-03-02T02:49:08;97990.41;;;4.34;100.00
43153;BME280;28756;49.064;9.290;2024-03-02T02:51:34;97989.84;;;4.27;100.00
43153;BME280;28756;49.064;9.290;2024-03-02T02:53:59;97979.28;;;4.33;100.00
43153;BME280;28756;49.064;9.290;2024-03-02T02:56:25;97978.06;;;4.40;100.00
43153;BME280;28756;49.064;9.290;2024-03-02T02:58:51;97972.56;;;4.48;100.00
43153;BME280;28756;49.064;9.290;2024-03-02T03:01:17;97975.75;;;4.53;100.00
43153;BME280;28756;49.064;9.290;2024-03-02T03:03:44;97974.72;;;4.57;100.00
43153;BME280;28756;49.064;9.290;2024-03-02T03:06:11;97968.50;;;4.62;100.00
43153;BME280;28756;49.064;9.290;2024-03-02T03:08:37;97967.50;;;4.64;100.00
43153;BME280;28756;49.064;9.290;2024-03-02T03:11:04;97970.84;;;4.66;100.00
43153;BME280;28756;49.064;9.290;2024-03-02T03:13:34;97971.00;;;4.63;100.00
43153;BME280;28756;49.064;9.290;2024-03-02T03:16:00;97977.03;;;4.62;100.00
43153;BME280;28756;49.064;9.290;2024-03-02T03:18:26;97975.31;;;4.63;100.00
43153;BME280;28756;49.064;9.290;2024-03-02T03:20:51;97973.50;;;4.65;100.00
43153;BME280;28756;49.064;9.290;2024-03-02T03:23:17;97973.56;;;4.63;100.00
43153;BME280;28756;49.064;9.290;2024-03-02T03:25:43;97982.16;;;4.64;100.00
43153;BME280;28756;49.064;9.290;2024-03-02T03:28:12;97982.16;;;4.64;100.00
43153;BME280;28756;49.064;9.290;2024-03-02T03:30:41;97982.34;;;4.59;100.00
43153;BME280;28756;49.064;9.290;2024-03-02T03:33:12;97985.84;;;4.58;100.00
43153;BME280;28756;49.064;9.290;2024-03-02T03:35:38;97986.75;;;4.57;100.00
43153;BME280;28756;49.064;9.290;2024-03-02T03:38:04;97987.81;;;4.53;100.00
43153;BME280;28756;49.064;9.290;2024-03-02T03:40:29;97986.28;;;4.49;100.00
43153;BME280;28756;49.064;9.290;2024-03-02T03:42:55;97984.69;;;4.46;100.00
43153;BME280;28756;49.064;9.290;2024-03-02T03:45:22;97980.50;;;4.43;100.00
43153;BME280;28756;49.064;9.290;2024-03-02T03:47:53;97982.25;;;4.43;100.00
43153;BME280;28756;49.064;9.290;2024-03-02T03:50:19;97986.66;;;4.41;100.00
43153;BME280;28756;49.064;9.290;2024-03-02T03:52:45;97978.97;;;4.39;100.00
43153;BME280;28756;49.064;9.290;2024-03-02T03:55:11;97979.66;;;4.43;100.00
43153;BME280;28756;49.064;9.290;2024-03-02T03:57:36;97981.28;;;4.46;100.00
43153;BME280;28756;49.064;9.290;2024-03-02T04:00:03;97979.75;;;4.41;100.00
43153;BME280;28756;49.064;9.290;2024-03-02T04:02:29;97975.28;;;4.45;100.00
43153;BME280;28756;49.064;9.290;2024-03-02T04:04:55;97977.78;;;4.47;100.00
43153;BME280;28756;49.064;9.290;2024-03-02T04:07:21;97978.53;;;4.49;100.00
43153;BME280;28756;49.064;9.290;2024-03-02T04:09:47;97969.84;;;4.51;100.00
43153;BME280;28756;49.064;9.290;2024-03-02T04:12:12;97973.19;;;4.53;100.00
43153;BME280;28756;49.064;9.290;2024-03-02T04:14:38;97967.91;;;4.56;100.00
43153;BME280;28756;49.064;9.290;2024-03-02T04:17:04;97971.22;;;4.58;100.00
43153;BME280;28756;49.064;9.290;2024-03-02T04:19:30;97970.09;;;4.64;100.00
43153;BME280;28756;49.064;9.290;2024-03-02T04:21:56;97970.94;;;4.65;100.00
43153;BME280;28756;49.064;9.290;2024-03-02T04:24:21;97970.84;;;4.66;100.00
43153;BME280;28756;49.064;9.290;2024-03-02T04:26:47;97964.78;;;4.67;100.00
43153;BME280;28756;49.064;9.290;2024-03-02T04:29:13;97967.28;;;4.69;100.00
43153;BME280;28756;49.064;9.290;2024-03-02T04:31:39;97971.66;;;4.67;100.00
43153;BME280;28756;49.064;9.290;2024-03-02T04:34:04;97968.28;;;4.66;100.00
43153;BME280;28756;49.064;9.290;2024-03-02T04:36:30;97966.59;;;4.65;100.00
43153;BME280;28756;49.064;9.290;2024-03-02T04:38:56;97966.75;;;4.62;100.00
43153;BME280;28756;49.064;9.290;2024-03-02T04:41:22;97978.19;;;4.56;100.00
43153;BME280;28756;49.064;9.290;2024-03-02T04:43:48;97978.13;;;4.58;100.00
43153;BME280;28756;49.064;9.290;2024-03-02T04:46:13;97977.56;;;4.51;100.00
43153;BME280;28756;49.064;9.290;2024-03-02T04:48:39;97983.69;;;4.49;100.00
43153;BME280;28756;49.064;9.290;2024-03-02T04:51:05;97976.06;;;4.47;100.00
43153;BME280;28756;49.064;9.290;2024-03-02T04:53:33;97978.06;;;4.40;100.00
43153;BME280;28756;49.064;9.290;2024-03-02T04:55:59;97981.50;;;4.41;100.00
43153;BME280;28756;49.064;9.290;2024-03-02T04:58:43;97976.47;;;4.38;100.00
43153;BME280;28756;49.064;9.290;2024-03-02T05:01:09;97981.03;;;4.33;100.00
43153;BME280;28756;49.064;9.290;2024-03-02T05:03:34;97981.06;;;4.31;100.00
43153;BME280;28756;49.064;9.290;2024-03-02T05:06:00;97991.44;;;4.30;100.00
43153;BME280;28756;49.064;9.290;2024-03-02T05:08:26;97982.81;;;4.31;100.00
43153;BME280;28756;49.064;9.290;2024-03-02T05:10:52;97982.81;;;4.31;100.00
43153;BME280;28756;49.064;9.290;2024-03-02T05:13:17;97982.63;;;4.35;100.00
43153;BME280;28756;49.064;9.290;2024-03-02T05:15:43;97973.31;;;4.33;100.00
43153;BME280;28756;49.064;9.290;2024-03-02T05:18:09;97983.44;;;4.36;100.00
43153;BME280;28756;49.064;9.290;2024-03-02T05:20:34;97979.81;;;4.40;100.00
43153;BME280;28756;49.064;9.290;2024-03-02T05:23:00;97980.66;;;4.40;100.00
43153;BME280;28756;49.064;9.290;2024-03-02T05:25:26;97982.41;;;4.40;100.00
43153;BME280;28756;49.064;9.290;2024-03-02T05:27:55;97977.16;;;4.41;100.00
43153;BME280;28756;49.064;9.290;2024-03-02T05:30:21;97978.00;;;4.42;100.00
43153;BME280;28756;49.064;9.290;2024-03-02T05:32:47;97977.16;;;4.41;100.00
43153;BME280;28756;49.064;9.290;2024-03-02T05:35:16;97977.25;;;4.40;100.00
43153;BME280;28756;49.064;9.290;2024-03-02T05:37:41;97982.41;;;4.40;100.00
43153;BME280;28756;49.064;9.290;2024-03-02T05:40:08;97984.28;;;4.36;100.00
43153;BME280;28756;49.064;9.290;2024-03-02T05:42:34;97988.75;;;4.33;100.00
43153;BME280;28756;49.064;9.290;2024-03-02T05:45:00;97985.31;;;4.32;100.00
43153;BME280;28756;49.064;9.290;2024-03-02T05:47:25;97994.09;;;4.28;100.00
43153;BME280;28756;49.064;9.290;2024-03-02T05:49:51;97988.19;;;4.26;100.00
43153;BME280;28756;49.064;9.290;2024-03-02T05:52:17;97987.19;;;4.29;100.00
43153;BME280;28756;49.064;9.290;2024-03-02T05:54:42;97989.69;;;4.30;100.00
43153;BME280;28756;49.064;9.290;2024-03-02T05:57:08;97987.84;;;4.34;100.00
43153;BME280;28756;49.064;9.290;2024-03-02T05:59:52;97994.84;;;4.30;100.00
43153;BME280;28756;49.064;9.290;2024-03-02T06:02:18;97995.28;;;4.21;100.00
43153;BME280;28756;49.064;9.290;2024-03-02T06:04:43;97988.69;;;4.15;100.00
43153;BME280;28756;49.064;9.290;2024-03-02T06:07:12;97998.00;;;4.18;100.00
43153;BME280;28756;49.064;9.290;2024-03-02T06:09:38;98005.09;;;4.13;100.00
43153;BME280;28756;49.064;9.290;2024-03-02T06:12:05;98002.03;;;4.04;100.00
43153;BME280;28756;49.064;9.290;2024-03-02T06:14:31;97997.22;;;3.97;100.00
43153;BME280;28756;49.064;9.290;2024-03-02T06:16:56;98012.88;;;3.92;100.00
43153;BME280;28756;49.064;9.290;2024-03-02T06:19:22;98012.38;;;3.84;100.00
43153;BME280;28756;49.064;9.290;2024-03-02T06:21:48;98014.03;;;3.85;100.00
43153;BME280;28756;49.064;9.290;2024-03-02T06:24:14;98021.00;;;3.83;100.00
43153;BME280;28756;49.064;9.290;2024-03-02T06:26:39;98022.75;;;3.82;100.00
43153;BME280;28756;49.064;9.290;2024-03-02T06:29:05;98017.50;;;3.84;100.00
43153;BME280;28756;49.064;9.290;2024-03-02T06:31:34;98027.97;;;4.00;100.00
43153;BME280;28756;49.064;9.290;2024-03-02T06:34:00;98027.97;;;4.00;100.00
43153;BME280;28756;49.064;9.290;2024-03-02T06:36:26;98032.97;;;4.03;100.00
43153;BME280;28756;49.064;9.290;2024-03-02T06:38:52;98030.25;;;4.06;100.00
43153;BME280;28756;49.064;9.290;2024-03-02T06:41:17;98035.34;;;4.07;100.00
43153;BME280;28756;49.064;9.290;2024-03-02T06:43:43;98025.81;;;4.09;100.00
43153;BME280;28756;49.064;9.290;2024-03-02T06:46:09;98025.69;;;4.13;100.00
43153;BME280;28756;49.064;9.290;2024-03-02T06:48:35;98026.31;;;4.18;100.00
43153;BME280;28756;49.064;9.290;2024-03-02T06:51:00;98024.28;;;4.24;100.00
43153;BME280;28756;49.064;9.290;2024-03-02T06:53:26;98017.78;;;4.35;100.00
43153;BME280;28756;49.064;9.290;2024-03-02T06:55:52;98022.31;;;4.49;100.00
43153;BME280;28756;49.064;9.290;2024-03-02T06:58:18;98019.88;;;4.65;100.00
43153;BME280;28756;49.064;9.290;2024-03-02T07:00:44;98014.50;;;4.69;100.00
43153;BME280;28756;49.064;9.290;2024-03-02T07:03:13;98015.78;;;4.78;100.00
43153;BME280;28756;49.064;9.290;2024-03-02T07:05:39;98015.34;;;4.87;100.00
43153;BME280;28756;49.064;9.290;2024-03-02T07:08:05;98024.44;;;4.95;100.00
43153;BME280;28756;49.064;9.290;2024-03-02T07:10:31;98013.00;;;5.00;100.00
43153;BME280;28756;49.064;9.290;2024-03-02T07:12:57;98003.31;;;5.05;100.00
43153;BME280;28756;49.064;9.290;2024-03-02T07:15:22;97996.94;;;5.13;100.00
43153;BME280;28756;49.064;9.290;2024-03-02T07:17:55;98005.88;;;5.23;100.00
43153;BME280;28756;49.064;9.290;2024-03-02T07:20:21;98005.56;;;5.29;100.00
43153;BME280;28756;49.064;9.290;2024-03-02T07:22:46;98005.25;;;5.35;100.00
43153;BME280;28756;49.064;9.290;2024-03-02T07:25:12;98002.44;;;5.40;100.00
43153;BME280;28756;49.064;9.290;2024-03-02T07:27:39;97995.16;;;5.48;100.00
43153;BME280;28756;49.064;9.290;2024-03-02T07:30:06;97995.59;;;5.57;100.00
43153;BME280;28756;49.064;9.290;2024-03-02T07:32:32;98002.19;;;5.62;100.00
43153;BME280;28756;49.064;9.290;2024-03-02T07:34:58;97994.03;;;5.70;100.00
43153;BME280;28756;49.064;9.290;2024-03-02T07:37:24;98000.38;;;5.80;100.00
43153;BME280;28756;49.064;9.290;2024-03-02T07:39:50;97998.84;;;5.60;100.00
43153;BME280;28756;49.064;9.290;2024-03-02T07:42:16;97996.22;;;5.78;100.00
43153;BME280;28756;49.064;9.290;2024-03-02T07:44:44;98002.50;;;5.90;100.00
43153;BME280;28756;49.064;9.290;2024-03-02T07:47:10;98000.41;;;5.96;100.00
43153;BME280;28756;49.064;9.290;2024-03-02T07:49:36;97996.69;;;6.02;100.00
43153;BME280;28756;49.064;9.290;2024-03-02T07:52:02;98001.47;;;6.10;100.00
43153;BME280;28756;49.064;9.290;2024-03-02T07:54:28;98002.88;;;6.15;100.00
43153;BME280;28756;49.064;9.290;2024-03-02T07:56:54;98010.97;;;6.25;100.00
43153;BME280;28756;49.064;9.290;2024-03-02T07:59:19;98013.97;;;6.34;100.00
43153;BME280;28756;49.064;9.290;2024-03-02T08:01:48;98015.09;;;6.44;100.00
43153;BME280;28756;49.064;9.290;2024-03-02T08:04:14;98004.53;;;6.48;100.00
43153;BME280;28756;49.064;9.290;2024-03-02T08:06:40;98002.53;;;6.54;100.00
43153;BME280;28756;49.064;9.290;2024-03-02T08:09:06;98006.34;;;6.62;100.00
43153;BME280;28756;49.064;9.290;2024-03-02T08:11:35;98004.34;;;6.68;100.00
43153;BME280;28756;49.064;9.290;2024-03-02T08:14:01;98004.19;;;6.71;100.00
43153;BME280;28756;49.064;9.290;2024-03-02T08:16:27;98000.16;;;6.81;100.00
43153;BME280;28756;49.064;9.290;2024-03-02T08:18:53;98004.22;;;6.85;100.00
43153;BME280;28756;49.064;9.290;2024-03-02T08:21:19;98003.41;;;6.85;100.00
43153;BME280;28756;49.064;9.290;2024-03-02T08:23:45;98001.63;;;6.85;100.00
43153;BME280;28756;49.064;9.290;2024-03-02T08:26:11;97991.91;;;6.90;100.00
43153;BME280;28756;49.064;9.290;2024-03-02T08:28:37;97989.47;;;6.87;100.00
43153;BME280;28756;49.064;9.290;2024-03-02T08:31:06;97985.06;;;6.89;100.00
43153;BME280;28756;49.064;9.290;2024-03-02T08:33:32;97984.56;;;6.83;100.00
43153;BME280;28756;49.064;9.290;2024-03-02T08:35:58;97987.72;;;6.88;100.00
43153;BME280;28756;49.064;9.290;2024-03-02T08:38:24;97982.78;;;6.83;100.00
43153;BME280;28756;49.064;9.290;2024-03-02T08:40:50;97983.56;;;6.85;100.00
43153;BME280;28756;49.064;9.290;2024-03-02T08:43:16;97985.38;;;6.83;100.00
43153;BME280;28756;49.064;9.290;2024-03-02T08:45:42;97980.16;;;6.85;100.00
43153;BME280;28756;49.064;9.290;2024-03-02T08:48:08;97982.47;;;6.89;100.00
43153;BME280;28756;49.064;9.290;2024-03-02T08:50:35;97983.19;;;6.91;100.00
43153;BME280;28756;49.064;9.290;2024-03-02T08:53:03;97965.94;;;6.92;100.00
43153;BME280;28756;49.064;9.290;2024-03-02T08:55:31;97953.69;;;6.95;100.00
43153;BME280;28756;49.064;9.290;2024-03-02T08:57:57;97961.19;;;7.00;100.00
43153;BME280;28756;49.064;9.290;2024-03-02T09:00:23;97959.78;;;7.09;100.00
43153;BME280;28756;49.064;9.290;2024-03-02T09:02:49;97964.78;;;7.12;100.00
43153;BME280;28756;49.064;9.290;2024-03-02T09:05:16;97966.19;;;7.18;100.00
43153;BME280;28756;49.064;9.290;2024-03-02T09:07:41;97961.22;;;7.29;100.00
43153;BME280;28756;49.064;9.290;2024-03-02T09:10:08;97955.50;;;7.38;100.00
43153;BME280;28756;49.064;9.290;2024-03-02T09:12:35;97943.13;;;7.43;100.00
43153;BME280;28756;49.064;9.290;2024-03-02T09:15:01;97931.84;;;7.59;100.00
43153;BME280;28756;49.064;9.290;2024-03-02T09:17:29;97949.41;;;7.68;100.00
43153;BME280;28756;49.064;9.290;2024-03-02T09:19:55;97938.47;;;7.78;100.00
43153;BME280;28756;49.064;9.290;2024-03-02T09:22:21;97937.72;;;7.90;100.00
43153;BME280;28756;49.064;9.290;2024-03-02T09:24:47;97927.53;;;8.01;100.00
43153;BME280;28756;49.064;9.290;2024-03-02T09:27:13;97932.22;;;8.09;100.00
43153;BME280;28756;49.064;9.290;2024-03-02T09:29:38;97932.38;;;8.20;100.00
43153;BME280;28756;49.064;9.290;2024-03-02T09:32:05;97927.66;;;8.27;100.00
43153;BME280;28756;49.064;9.290;2024-03-02T09:34:32;97915.28;;;8.45;100.00
43153;BME280;28756;49.064;9.290;2024-03-02T09:36:58;97917.09;;;8.58;100.00
43153;BME280;28756;49.064;9.290;2024-03-02T09:39:24;97917.22;;;8.69;100.00
43153;BME280;28756;49.064;9.290;2024-03-02T09:41:51;97917.16;;;8.83;100.00
43153;BME280;28756;49.064;9.290;2024-03-02T09:44:17;97917.16;;;8.83;100.00
43153;BME280;28756;49.064;9.290;2024-03-02T09:47:02;97910.75;;;9.02;100.00
43153;BME280;28756;49.064;9.290;2024-03-02T09:49:34;97916.97;;;9.12;100.00
43153;BME280;28756;49.064;9.290;2024-03-02T09:52:01;97907.44;;;9.26;100.00
43153;BME280;28756;49.064;9.290;2024-03-02T09:54:48;97892.91;;;9.23;100.00
43153;BME280;28756;49.064;9.290;2024-03-02T09:57:32;97894.53;;;9.37;100.00
43153;BME280;28756;49.064;9.290;2024-03-02T09:59:58;97895.78;;;9.44;100.00
43153;BME280;28756;49.064;9.290;2024-03-02T10:02:23;97898.78;;;9.51;100.00
43153;BME280;28756;49.064;9.290;2024-03-02T10:04:50;97899.38;;;9.68;100.00
43153;BME280;28756;49.064;9.290;2024-03-02T10:07:19;97898.09;;;9.86;100.00
43153;BME280;28756;49.064;9.290;2024-03-02T10:09:47;97888.66;;;9.85;100.00
43153;BME280;28756;49.064;9.290;2024-03-02T10:12:16;97886.63;;;10.02;100.00
43153;BME280;28756;49.064;9.290;2024-03-02T10:14:42;97890.03;;;10.26;100.00
43153;BME280;28756;49.064;9.290;2024-03-02T10:17:13;97880.06;;;10.57;100.00
43153;BME280;28756;49.064;9.290;2024-03-02T10:19:39;97866.56;;;11.22;100.00
43153;BME280;28756;49.064;9.290;2024-03-02T10:22:07;97864.63;;;12.57;100.00
43153;BME280;28756;49.064;9.290;2024-03-02T10:24:42;97855.22;;;13.39;100.00
43153;BME280;28756;49.064;9.290;2024-03-02T10:27:17;97851.06;;;13.97;100.00
43153;BME280;28756;49.064;9.290;2024-03-02T10:29:48;97852.69;;;14.96;100.00
43153;BME280;28756;49.064;9.290;2024-03-02T10:32:15;97845.19;;;15.21;85.64
43153;BME280;28756;49.064;9.290;2024-03-02T10:34:42;97846.25;;;14.61;90.37
43153;BME280;28756;49.064;9.290;2024-03-02T10:37:10;97839.56;;;15.44;84.53
43153;BME280;28756;49.064;9.290;2024-03-02T10:39:36;97832.22;;;15.85;76.15
43153;BME280;28756;49.064;9.290;2024-03-02T10:42:04;97833.47;;;15.53;69.61
43153;BME280;28756;49.064;9.290;2024-03-02T10:44:32;97827.66;;;15.77;72.40
43153;BME280;28756;49.064;9.290;2024-03-02T10:47:04;97822.97;;;16.53;67.83
43153;BME280;28756;49.064;9.290;2024-03-02T10:49:31;97813.47;;;17.05;66.94
43153;BME280;28756;49.064;9.290;2024-03-02T10:51:58;97818.63;;;17.15;64.84
43153;BME280;28756;49.064;9.290;2024-03-02T10:54:25;97805.78;;;17.12;62.38
43153;BME280;28756;49.064;9.290;2024-03-02T10:57:01;97809.91;;;17.14;64.04
43153;BME280;28756;49.064;9.290;2024-03-02T10:59:34;97806.13;;;17.17;65.21
43153;BME280;28756;49.064;9.290;2024-03-02T11:02:03;97792.41;;;16.97;60.95
43153;BME280;28756;49.064;9.290;2024-03-02T11:04:30;97799.88;;;17.52;64.31
43153;BME280;28756;49.064;9.290;2024-03-02T11:09:28;97788.78;;;17.24;57.96
43153;BME280;28756;49.064;9.290;2024-03-02T11:14:44;97783.84;;;16.42;56.12
43153;BME280;28756;49.064;9.290;2024-03-02T11:17:24;97776.81;;;17.30;60.67
43153;BME280;28756;49.064;9.290;2024-03-02T11:20:07;97779.19;;;17.58;56.08
43153;BME280;28756;49.064;9.290;2024-03-02T11:23:04;97771.78;;;17.53;54.89
43153;BME280;28756;49.064;9.290;2024-03-02T11:25:36;97779.66;;;17.45;57.06
43153;BME280;28756;49.064;9.290;2024-03-02T11:28:05;97783.31;;;17.68;56.82
43153;BME280;28756;49.064;9.290;2024-03-02T11:33:04;97775.28;;;17.78;53.71
43153;BME280;28756;49.064;9.290;2024-03-02T11:35:43;97773.22;;;18.07;50.73
43153;BME280;28756;49.064;9.290;2024-03-02T11:38:11;97768.88;;;17.81;54.23
43153;BME280;28756;49.064;9.290;2024-03-02T11:40:39;97761.53;;;18.01;52.98
43153;BME280;28756;49.064;9.290;2024-03-02T11:43:05;97749.16;;;18.51;53.10
43153;BME280;28756;49.064;9.290;2024-03-02T11:45:31;97739.25;;;18.70;48.46
43153;BME280;28756;49.064;9.290;2024-03-02T11:48:00;97738.09;;;18.72;48.38
43153;BME280;28756;49.064;9.290;2024-03-02T11:50:47;97741.63;;;18.40;49.24
43153;BME280;28756;49.064;9.290;2024-03-02T11:53:13;97729.97;;;18.01;48.12
43153;BME280;28756;49.064;9.290;2024-03-02T11:55:39;97724.53;;;17.94;49.72
43153;BME280;28756;49.064;9.290;2024-03-02T11:58:13;97729.78;;;17.86;48.59
43153;BME280;28756;49.064;9.290;2024-03-02T12:00:39;97726.41;;;17.34;51.10
43153;BME280;28756;49.064;9.290;2024-03-02T12:03:10;97726.56;;;16.90;49.42
43153;BME280;28756;49.064;9.290;2024-03-02T12:05:37;97719.19;;;16.59;52.61
43153;BME280;28756;49.064;9.290;2024-03-02T12:08:05;97709.38;;;16.61;54.11
43153;BME280;28756;49.064;9.290;2024-03-02T12:10:36;97720.06;;;16.15;54.12
43153;BME280;28756;49.064;9.290;2024-03-02T12:13:04;97704.78;;;16.37;55.28
43153;BME280;28756;49.064;9.290;2024-03-02T12:15:36;97701.38;;;16.18;56.92
43153;BME280;28756;49.064;9.290;2024-03-02T12:18:03;97702.25;;;16.01;53.65
43153;BME280;28756;49.064;9.290;2024-03-02T12:20:31;97701.06;;;15.77;57.13
43153;BME280;28756;49.064;9.290;2024-03-02T12:23:02;97697.84;;;15.65;61.75
43153;BME280;28756;49.064;9.290;2024-03-02T12:25:31;97702.31;;;15.73;56.86
43153;BME280;28756;49.064;9.290;2024-03-02T12:28:02;97698.28;;;15.42;56.64
43153;BME280;28756;49.064;9.290;2024-03-02T12:30:34;97690.91;;;15.28;57.13
43153;BME280;28756;49.064;9.290;2024-03-02T12:33:00;97691.31;;;15.05;59.42
43153;BME280;28756;49.064;9.290;2024-03-02T12:35:26;97689.03;;;14.92;64.74
43153;BME280;28756;49.064;9.290;2024-03-02T12:37:53;97684.53;;;15.12;61.79
43153;BME280;28756;49.064;9.290;2024-03-02T12:40:20;97677.78;;;15.38;67.37
43153;BME280;28756;49.064;9.290;2024-03-02T12:42:48;97677.91;;;15.36;58.90
43153;BME280;28756;49.064;9.290;2024-03-02T12:45:15;97684.09;;;15.35;65.87
43153;BME280;28756;49.064;9.290;2024-03-02T12:47:42;97675.81;;;15.58;68.57
43153;BME280;28756;49.064;9.290;2024-03-02T12:50:09;97671.25;;;15.60;57.67
43153;BME280;28756;49.064;9.290;2024-03-02T12:52:35;97666.47;;;15.91;59.63
43153;BME280;28756;49.064;9.290;2024-03-02T12:55:04;97667.88;;;15.86;60.64
43153;BME280;28756;49.064;9.290;2024-03-02T12:57:31;97666.97;;;16.21;57.85
43153;BME280;28756;49.064;9.290;2024-03-02T13:00:05;97663.84;;;16.18;58.99
43153;BME280;28756;49.064;9.290;2024-03-02T13:02:36;97659.13;;;15.95;58.54
43153;BME280;28756;49.064;9.290;2024-03-02T13:05:02;97660.44;;;15.81;54.25
43153;BME280;28756;49.064;9.290;2024-03-02T13:07:29;97660.53;;;15.89;58.79
43153;BME280;28756;49.064;9.290;2024-03-02T13:09:56;97653.53;;;16.16;63.51